sensor_id;sensor_type;location;lat;lon;timestamp;temperature;humidity
28244;DHT22;15510;52.512;13.300;2023-04-25T00:02:16;9.90;99.90
28244;DHT22;15510;52.512;13.300;2023-04-25T00:04:42;10.00;99.90
28244;DHT22;15510;52.512;13.300;2023-04-25T00:07:09;10.00;99.90
28244;DHT22;15510;52.512;13.300;2023-04-25T00:09:38;10.00;99.90
28244;DHT22;15510;52.512;13.300;2023-04-25T00:12:04;10.10;99.90
28244;DHT22;15510;52.512;13.300;2023-04-25T00:14:30;10.10;99.90
28244;DHT22;15510;52.512;13.300;2023-04-25T00:16:55;10.00;99.90
28244;DHT22;15510;52.512;13.300;2023-04-25T00:19:21;10.10;99.90
28244;DHT22;15510;52.512;13.300;2023-04-25T00:21:47;10.10;99.90
28244;DHT22;15510;52.512;13.300;2023-04-25T00:24:13;10.10;99.90
28244;DHT22;15510;52.512;13.300;2023-04-25T00:26:39;10.20;99.90
28244;DHT22;15510;52.512;13.300;2023-04-25T00:29:05;10.20;99.90
28244;DHT22;15510;52.512;13.300;2023-04-25T00:31:30;10.10;99.90
28244;DHT22;15510;52.512;13.300;2023-04-25T00:33:56;10.10;99.90
28244;DHT22;15510;52.512;13.300;2023-04-25T00:36:22;10.00;99.90
28244;DHT22;15510;52.512;13.300;2023-04-25T00:38:48;10.00;99.90
28244;DHT22;15510;52.512;13.300;2023-04-25T00:41:14;10.10;99.90
28244;DHT22;15510;52.512;13.300;2023-04-25T00:43:41;10.10;99.90
28244;DHT22;15510;52.512;13.300;2023-04-25T00:46:07;10.10;99.90
28244;DHT22;15510;52.512;13.300;2023-04-25T00:48:33;10.20;99.90
28244;DHT22;15510;52.512;13.300;2023-04-25T00:50:59;10.30;99.90
28244;DHT22;15510;52.512;13.300;2023-04-25T00:53:27;10.30;99.90
28244;DHT22;15510;52.512;13.300;2023-04-25T00:55:54;10.30;99.90
28244;DHT22;15510;52.512;13.300;2023-04-25T00:58:21;10.40;99.90
28244;DHT22;15510;52.512;13.300;2023-04-25T01:00:49;10.30;99.90
28244;DHT22;15510;52.512;13.300;2023-04-25T01:03:16;10.40;99.90
28244;DHT22;15510;52.512;13.300;2023-04-25T01:05:43;10.30;99.90
28244;DHT22;15510;52.512;13.300;2023-04-25T01:08:09;10.20;99.90
28244;DHT22;15510;52.512;13.300;2023-04-25T01:10:36;10.20;99.90
28244;DHT22;15510;52.512;13.300;2023-04-25T01:13:02;10.10;99.90
28244;DHT22;15510;52.512;13.300;2023-04-25T01:15:28;10.10;99.90
28244;DHT22;15510;52.512;13.300;2023-04-25T01:17:54;10.10;99.90
28244;DHT22;15510;52.512;13.300;2023-04-25T01:20:24;10.20;99.90
28244;DHT22;15510;52.512;13.300;2023-04-25T01:22:51;10.10;99.90
28244;DHT22;15510;52.512;13.300;2023-04-25T01:25:22;10.10;99.90
28244;DHT22;15510;52.512;13.300;2023-04-25T01:27:48;10.10;99.90
28244;DHT22;15510;52.512;13.300;2023-04-25T01:30:15;10.10;99.90
28244;DHT22;15510;52.512;13.300;2023-04-25T01:32:42;10.00;99.90
28244;DHT22;15510;52.512;13.300;2023-04-25T01:35:10;10.00;99.90
28244;DHT22;15510;52.512;13.300;2023-04-25T01:37:40;10.00;99.90
28244;DHT22;15510;52.512;13.300;2023-04-25T01:40:10;9.90;99.90
28244;DHT22;15510;52.512;13.300;2023-04-25T01:42:39;9.90;99.90
28244;DHT22;15510;52.512;13.300;2023-04-25T01:45:06;10.00;99.90
28244;DHT22;15510;52.512;13.300;2023-04-25T01:47:33;10.00;99.90
28244;DHT22;15510;52.512;13.300;2023-04-25T01:50:03;10.00;99.90
28244;DHT22;15510;52.512;13.300;2023-04-25T01:52:30;9.90;99.90
28244;DHT22;15510;52.512;13.300;2023-04-25T01:54:57;10.10;99.90
28244;DHT22;15510;52.512;13.300;2023-04-25T01:57:27;10.10;99.90
28244;DHT22;15510;52.512;13.300;2023-04-25T02:00:03;10.10;99.90
28244;DHT22;15510;52.512;13.300;2023-04-25T02:02:39;10.10;99.90
28244;DHT22;15510;52.512;13.300;2023-04-25T02:05:13;10.10;99.90
28244;DHT22;15510;52.512;13.300;2023-04-25T02:07:41;10.00;99.90
28244;DHT22;15510;52.512;13.300;2023-04-25T02:10:07;10.00;99.90
28244;DHT22;15510;52.512;13.300;2023-04-25T02:12:38;10.00;99.90
28244;DHT22;15510;52.512;13.300;2023-04-25T02:15:18;9.90;99.90
28244;DHT22;15510;52.512;13.300;2023-04-25T02:17:50;10.00;99.90
28244;DHT22;15510;52.512;13.300;2023-04-25T02:20:20;10.00;99.90
28244;DHT22;15510;52.512;13.300;2023-04-25T02:22:46;10.00;99.90
28244;DHT22;15510;52.512;13.300;2023-04-25T02:25:12;9.90;99.90
28244;DHT22;15510;52.512;13.300;2023-04-25T02:27:38;9.90;99.90
28244;DHT22;15510;52.512;13.300;2023-04-25T02:30:05;9.90;99.90
28244;DHT22;15510;52.512;13.300;2023-04-25T02:32:33;9.90;99.90
28244;DHT22;15510;52.512;13.300;2023-04-25T02:35:00;9.90;99.90
28244;DHT22;15510;52.512;13.300;2023-04-25T02:37:34;9.90;99.90
28244;DHT22;15510;52.512;13.300;2023-04-25T02:40:00;9.90;99.90
28244;DHT22;15510;52.512;13.300;2023-04-25T02:42:27;9.80;99.90
28244;DHT22;15510;52.512;13.300;2023-04-25T02:44:53;9.90;99.90
28244;DHT22;15510;52.512;13.300;2023-04-25T02:47:19;9.90;99.90
28244;DHT22;15510;52.512;13.300;2023-04-25T02:49:45;9.90;99.90
28244;DHT22;15510;52.512;13.300;2023-04-25T02:52:12;9.90;99.90
28244;DHT22;15510;52.512;13.300;2023-04-25T02:54:39;9.90;99.90
28244;DHT22;15510;52.512;13.300;2023-04-25T02:57:05;9.90;99.90
28244;DHT22;15510;52.512;13.300;2023-04-25T02:59:35;9.80;99.90
28244;DHT22;15510;52.512;13.300;2023-04-25T03:02:01;9.90;99.90
28244;DHT22;15510;52.512;13.300;2023-04-25T03:04:27;9.80;99.90
28244;DHT22;15510;52.512;13.300;2023-04-25T03:06:53;9.90;99.90
28244;DHT22;15510;52.512;13.300;2023-04-25T03:09:20;9.80;99.90
28244;DHT22;15510;52.512;13.300;2023-04-25T03:11:46;9.80;99.90
28244;DHT22;15510;52.512;13.300;2023-04-25T03:14:13;9.70;99.90
28244;DHT22;15510;52.512;13.300;2023-04-25T03:16:39;9.70;99.90
28244;DHT22;15510;52.512;13.300;2023-04-25T03:19:05;9.70;99.90
28244;DHT22;15510;52.512;13.300;2023-04-25T03:21:33;9.80;99.90
28244;DHT22;15510;52.512;13.300;2023-04-25T03:24:03;9.70;99.90
28244;DHT22;15510;52.512;13.300;2023-04-25T03:26:32;9.70;99.90
28244;DHT22;15510;52.512;13.300;2023-04-25T03:28:59;9.70;99.90
28244;DHT22;15510;52.512;13.300;2023-04-25T03:31:25;9.60;99.90
28244;DHT22;15510;52.512;13.300;2023-04-25T03:33:51;9.70;99.90
28244;DHT22;15510;52.512;13.300;2023-04-25T03:36:20;9.70;99.90
28244;DHT22;15510;52.512;13.300;2023-04-25T03:38:46;9.70;99.90
28244;DHT22;15510;52.512;13.300;2023-04-25T03:41:15;9.70;99.90
28244;DHT22;15510;52.512;13.300;2023-04-25T03:43:44;9.80;99.90
28244;DHT22;15510;52.512;13.300;2023-04-25T03:46:12;9.80;99.90
28244;DHT22;15510;52.512;13.300;2023-04-25T03:48:40;9.80;99.90
28244;DHT22;15510;52.512;13.300;2023-04-25T03:51:08;9.70;99.90
28244;DHT22;15510;52.512;13.300;2023-04-25T03:53:38;9.60;99.90
28244;DHT22;15510;52.512;13.300;2023-04-25T03:56:34;9.60;99.90
28244;DHT22;15510;52.512;13.300;2023-04-25T03:59:09;9.70;99.90
28244;DHT22;15510;52.512;13.300;2023-04-25T04:01:35;9.70;99.90
28244;DHT22;15510;52.512;13.300;2023-04-25T04:04:01;9.80;99.90
28244;DHT22;15510;52.512;13.300;2023-04-25T04:06:28;9.70;99.90
28244;DHT22;15510;52.512;13.300;2023-04-25T04:09:03;9.70;99.90
28244;DHT22;15510;52.512;13.300;2023-04-25T04:11:31;9.60;99.90
28244;DHT22;15510;52.512;13.300;2023-04-25T04:13:58;9.60;99.90
28244;DHT22;15510;52.512;13.300;2023-04-25T04:16:23;9.70;99.90
28244;DHT22;15510;52.512;13.300;2023-04-25T04:18:50;9.70;99.90
28244;DHT22;15510;52.512;13.300;2023-04-25T04:21:16;9.70;99.90
28244;DHT22;15510;52.512;13.300;2023-04-25T04:23:43;9.70;99.90
28244;DHT22;15510;52.512;13.300;2023-04-25T04:26:09;9.90;99.90
28244;DHT22;15510;52.512;13.300;2023-04-25T04:29:01;9.70;99.90
28244;DHT22;15510;52.512;13.300;2023-04-25T04:31:49;9.80;99.90
28244;DHT22;15510;52.512;13.300;2023-04-25T04:34:16;9.70;99.90
28244;DHT22;15510;52.512;13.300;2023-04-25T04:36:45;9.70;99.90
28244;DHT22;15510;52.512;13.300;2023-04-25T04:39:15;9.70;99.90
28244;DHT22;15510;52.512;13.300;2023-04-25T04:42:01;9.70;99.90
28244;DHT22;15510;52.512;13.300;2023-04-25T04:44:39;9.70;99.90
28244;DHT22;15510;52.512;13.300;2023-04-25T04:47:32;9.80;99.90
28244;DHT22;15510;52.512;13.300;2023-04-25T04:50:16;10.00;99.90
28244;DHT22;15510;52.512;13.300;2023-04-25T04:53:00;10.00;99.90
28244;DHT22;15510;52.512;13.300;2023-04-25T04:55:52;10.00;99.90
28244;DHT22;15510;52.512;13.300;2023-04-25T04:58:29;10.20;99.90
28244;DHT22;15510;52.512;13.300;2023-04-25T05:01:07;10.20;99.90
28244;DHT22;15510;52.512;13.300;2023-04-25T05:03:59;10.00;99.90
28244;DHT22;15510;52.512;13.300;2023-04-25T05:06:45;10.10;99.90
28244;DHT22;15510;52.512;13.300;2023-04-25T05:09:18;10.10;99.90
28244;DHT22;15510;52.512;13.300;2023-04-25T05:12:13;10.10;99.90
28244;DHT22;15510;52.512;13.300;2023-04-25T05:14:53;10.10;99.90
28244;DHT22;15510;52.512;13.300;2023-04-25T05:17:37;10.20;99.90
28244;DHT22;15510;52.512;13.300;2023-04-25T05:20:23;10.30;99.90
28244;DHT22;15510;52.512;13.300;2023-04-25T05:22:59;10.20;99.90
28244;DHT22;15510;52.512;13.300;2023-04-25T05:26:00;10.30;99.90
28244;DHT22;15510;52.512;13.300;2023-04-25T05:28:56;10.20;99.90
28244;DHT22;15510;52.512;13.300;2023-04-25T05:31:22;10.20;99.90
28244;DHT22;15510;52.512;13.300;2023-04-25T05:34:02;10.20;99.90
28244;DHT22;15510;52.512;13.300;2023-04-25T05:37:07;10.20;99.90
28244;DHT22;15510;52.512;13.300;2023-04-25T05:39:54;10.20;99.90
28244;DHT22;15510;52.512;13.300;2023-04-25T05:43:03;10.10;99.90
28244;DHT22;15510;52.512;13.300;2023-04-25T05:45:49;10.20;99.90
28244;DHT22;15510;52.512;13.300;2023-04-25T05:48:39;10.30;99.90
28244;DHT22;15510;52.512;13.300;2023-04-25T05:51:31;10.30;99.90
28244;DHT22;15510;52.512;13.300;2023-04-25T05:54:29;10.30;99.90
28244;DHT22;15510;52.512;13.300;2023-04-25T05:56:56;10.30;99.90
28244;DHT22;15510;52.512;13.300;2023-04-25T05:59:22;10.40;99.90
28244;DHT22;15510;52.512;13.300;2023-04-25T06:01:48;10.60;99.90
28244;DHT22;15510;52.512;13.300;2023-04-25T06:04:14;10.60;99.90
28244;DHT22;15510;52.512;13.300;2023-04-25T06:06:42;10.60;99.90
28244;DHT22;15510;52.512;13.300;2023-04-25T06:09:08;10.60;99.90
28244;DHT22;15510;52.512;13.300;2023-04-25T06:11:34;10.60;99.90
28244;DHT22;15510;52.512;13.300;2023-04-25T06:14:00;10.60;99.90
28244;DHT22;15510;52.512;13.300;2023-04-25T06:16:32;10.70;99.90
28244;DHT22;15510;52.512;13.300;2023-04-25T06:19:00;10.80;99.90
28244;DHT22;15510;52.512;13.300;2023-04-25T06:21:26;10.90;99.90
28244;DHT22;15510;52.512;13.300;2023-04-25T06:23:53;10.90;99.90
28244;DHT22;15510;52.512;13.300;2023-04-25T06:26:21;11.00;99.90
28244;DHT22;15510;52.512;13.300;2023-04-25T06:28:48;11.10;99.90
28244;DHT22;15510;52.512;13.300;2023-04-25T06:31:14;10.90;99.90
28244;DHT22;15510;52.512;13.300;2023-04-25T06:33:45;10.90;99.90
28244;DHT22;15510;52.512;13.300;2023-04-25T06:36:11;10.90;99.90
28244;DHT22;15510;52.512;13.300;2023-04-25T06:38:44;11.00;99.90
28244;DHT22;15510;52.512;13.300;2023-04-25T06:41:10;11.00;99.90
28244;DHT22;15510;52.512;13.300;2023-04-25T06:43:36;11.00;99.90
28244;DHT22;15510;52.512;13.300;2023-04-25T06:46:15;11.00;99.90
28244;DHT22;15510;52.512;13.300;2023-04-25T06:48:44;10.90;99.90
28244;DHT22;15510;52.512;13.300;2023-04-25T06:51:10;10.80;99.90
28244;DHT22;15510;52.512;13.300;2023-04-25T06:53:38;10.70;99.90
28244;DHT22;15510;52.512;13.300;2023-04-25T06:56:06;10.70;99.90
28244;DHT22;15510;52.512;13.300;2023-04-25T06:58:44;10.70;99.90
28244;DHT22;15510;52.512;13.300;2023-04-25T07:01:41;10.70;99.90
28244;DHT22;15510;52.512;13.300;2023-04-25T07:04:24;10.80;99.90
28244;DHT22;15510;52.512;13.300;2023-04-25T07:07:01;10.70;99.90
28244;DHT22;15510;52.512;13.300;2023-04-25T07:09:37;10.60;99.90
28244;DHT22;15510;52.512;13.300;2023-04-25T07:12:04;10.50;99.90
28244;DHT22;15510;52.512;13.300;2023-04-25T07:14:30;10.40;99.90
28244;DHT22;15510;52.512;13.300;2023-04-25T07:16:57;10.50;99.90
28244;DHT22;15510;52.512;13.300;2023-04-25T07:19:25;10.40;99.90
28244;DHT22;15510;52.512;13.300;2023-04-25T07:21:57;10.40;99.90
28244;DHT22;15510;52.512;13.300;2023-04-25T07:24:23;10.50;99.90
28244;DHT22;15510;52.512;13.300;2023-04-25T07:26:50;10.60;99.90
28244;DHT22;15510;52.512;13.300;2023-04-25T07:29:36;10.60;99.90
28244;DHT22;15510;52.512;13.300;2023-04-25T07:32:06;10.80;99.90
28244;DHT22;15510;52.512;13.300;2023-04-25T07:34:32;10.90;99.90
28244;DHT22;15510;52.512;13.300;2023-04-25T07:36:58;11.00;99.90
28244;DHT22;15510;52.512;13.300;2023-04-25T07:39:27;11.10;99.90
28244;DHT22;15510;52.512;13.300;2023-04-25T07:41:53;11.20;99.90
28244;DHT22;15510;52.512;13.300;2023-04-25T07:44:24;11.20;99.90
28244;DHT22;15510;52.512;13.300;2023-04-25T07:46:51;11.30;99.90
28244;DHT22;15510;52.512;13.300;2023-04-25T07:49:19;11.20;99.90
28244;DHT22;15510;52.512;13.300;2023-04-25T07:51:45;11.10;99.90
28244;DHT22;15510;52.512;13.300;2023-04-25T07:54:15;11.10;99.90
28244;DHT22;15510;52.512;13.300;2023-04-25T07:56:46;11.00;99.90
28244;DHT22;15510;52.512;13.300;2023-04-25T07:59:12;10.80;99.90
28244;DHT22;15510;52.512;13.300;2023-04-25T08:01:39;10.80;99.90
28244;DHT22;15510;52.512;13.300;2023-04-25T08:04:06;11.00;99.90
28244;DHT22;15510;52.512;13.300;2023-04-25T08:06:49;11.30;99.90
28244;DHT22;15510;52.512;13.300;2023-04-25T08:09:22;11.60;99.90
28244;DHT22;15510;52.512;13.300;2023-04-25T08:11:54;11.80;99.90
28244;DHT22;15510;52.512;13.300;2023-04-25T08:14:26;11.80;99.90
28244;DHT22;15510;52.512;13.300;2023-04-25T08:16:52;11.90;99.90
28244;DHT22;15510;52.512;13.300;2023-04-25T08:19:23;11.90;99.90
28244;DHT22;15510;52.512;13.300;2023-04-25T08:22:09;12.00;99.90
28244;DHT22;15510;52.512;13.300;2023-04-25T08:24:45;12.00;99.90
28244;DHT22;15510;52.512;13.300;2023-04-25T08:27:12;12.00;99.90
28244;DHT22;15510;52.512;13.300;2023-04-25T08:29:38;12.20;99.90
28244;DHT22;15510;52.512;13.300;2023-04-25T08:32:04;12.40;99.90
28244;DHT22;15510;52.512;13.300;2023-04-25T08:34:32;12.40;99.90
28244;DHT22;15510;52.512;13.300;2023-04-25T08:37:04;12.30;99.90
28244;DHT22;15510;52.512;13.300;2023-04-25T08:39:57;12.20;99.90
28244;DHT22;15510;52.512;13.300;2023-04-25T08:42:41;12.20;99.90
28244;DHT22;15510;52.512;13.300;2023-04-25T08:45:08;12.30;99.90
28244;DHT22;15510;52.512;13.300;2023-04-25T08:47:38;12.30;99.90
28244;DHT22;15510;52.512;13.300;2023-04-25T08:50:09;12.30;99.90
28244;DHT22;15510;52.512;13.300;2023-04-25T08:52:40;12.30;99.90
28244;DHT22;15510;52.512;13.300;2023-04-25T08:55:09;12.10;99.90
28244;DHT22;15510;52.512;13.300;2023-04-25T08:57:45;12.00;99.90
28244;DHT22;15510;52.512;13.300;2023-04-25T09:00:20;12.20;99.90
28244;DHT22;15510;52.512;13.300;2023-04-25T09:02:47;12.30;99.90
28244;DHT22;15510;52.512;13.300;2023-04-25T09:05:13;12.40;99.90
28244;DHT22;15510;52.512;13.300;2023-04-25T09:07:47;12.40;99.90
28244;DHT22;15510;52.512;13.300;2023-04-25T09:10:13;12.50;99.90
28244;DHT22;15510;52.512;13.300;2023-04-25T09:12:40;12.50;99.90
28244;DHT22;15510;52.512;13.300;2023-04-25T09:15:12;12.50;99.90
28244;DHT22;15510;52.512;13.300;2023-04-25T09:17:58;12.40;99.90
28244;DHT22;15510;52.512;13.300;2023-04-25T09:20:42;12.20;99.90
28244;DHT22;15510;52.512;13.300;2023-04-25T09:23:09;12.20;99.90
28244;DHT22;15510;52.512;13.300;2023-04-25T09:25:40;12.30;99.90
28244;DHT22;15510;52.512;13.300;2023-04-25T09:28:11;12.40;99.90
28244;DHT22;15510;52.512;13.300;2023-04-25T09:30:39;12.60;99.90
28244;DHT22;15510;52.512;13.300;2023-04-25T09:33:16;13.00;99.90
28244;DHT22;15510;52.512;13.300;2023-04-25T09:35:47;13.50;99.90
28244;DHT22;15510;52.512;13.300;2023-04-25T09:38:52;13.80;99.90
28244;DHT22;15510;52.512;13.300;2023-04-25T09:41:27;14.00;99.90
28244;DHT22;15510;52.512;13.300;2023-04-25T09:43:59;14.00;99.90
28244;DHT22;15510;52.512;13.300;2023-04-25T09:46:34;13.80;99.90
28244;DHT22;15510;52.512;13.300;2023-04-25T09:49:06;13.80;99.90
28244;DHT22;15510;52.512;13.300;2023-04-25T09:51:39;13.60;99.90
28244;DHT22;15510;52.512;13.300;2023-04-25T09:54:06;13.60;99.90
28244;DHT22;15510;52.512;13.300;2023-04-25T09:56:39;13.50;99.90
28244;DHT22;15510;52.512;13.300;2023-04-25T09:59:07;13.40;99.90
28244;DHT22;15510;52.512;13.300;2023-04-25T10:01:43;13.40;99.90
28244;DHT22;15510;52.512;13.300;2023-04-25T10:04:20;13.50;99.90
28244;DHT22;15510;52.512;13.300;2023-04-25T10:10:30;13.50;99.90
28244;DHT22;15510;52.512;13.300;2023-04-25T10:13:04;13.60;99.10
28244;DHT22;15510;52.512;13.300;2023-04-25T10:15:31;13.70;97.40
28244;DHT22;15510;52.512;13.300;2023-04-25T10:18:02;13.60;97.00
28244;DHT22;15510;52.512;13.300;2023-04-25T10:20:29;13.70;97.40
28244;DHT22;15510;52.512;13.300;2023-04-25T10:22:58;13.80;97.30
28244;DHT22;15510;52.512;13.300;2023-04-25T10:25:28;13.80;97.20
28244;DHT22;15510;52.512;13.300;2023-04-25T10:27:57;13.80;97.10
28244;DHT22;15510;52.512;13.300;2023-04-25T10:30:30;13.70;97.50
28244;DHT22;15510;52.512;13.300;2023-04-25T10:32:56;13.70;97.10
28244;DHT22;15510;52.512;13.300;2023-04-25T10:35:29;13.70;97.40
28244;DHT22;15510;52.512;13.300;2023-04-25T10:38:10;13.70;97.20
28244;DHT22;15510;52.512;13.300;2023-04-25T10:40:40;13.90;97.20
28244;DHT22;15510;52.512;13.300;2023-04-25T10:46:27;13.70;96.30
28244;DHT22;15510;52.512;13.300;2023-04-25T10:48:59;13.70;96.70
28244;DHT22;15510;52.512;13.300;2023-04-25T10:51:33;13.80;96.60
28244;DHT22;15510;52.512;13.300;2023-04-25T10:54:04;13.80;96.50
28244;DHT22;15510;52.512;13.300;2023-04-25T10:56:40;13.60;97.40
28244;DHT22;15510;52.512;13.300;2023-04-25T10:59:19;13.80;96.80
28244;DHT22;15510;52.512;13.300;2023-04-25T11:01:51;14.10;96.00
28244;DHT22;15510;52.512;13.300;2023-04-25T11:04:29;14.10;95.20
28244;DHT22;15510;52.512;13.300;2023-04-25T11:09:37;14.00;94.90
28244;DHT22;15510;52.512;13.300;2023-04-25T11:12:06;13.60;94.50
28244;DHT22;15510;52.512;13.300;2023-04-25T11:14:32;13.20;95.90
28244;DHT22;15510;52.512;13.300;2023-04-25T11:17:02;12.80;97.70
28244;DHT22;15510;52.512;13.300;2023-04-25T11:19:29;12.40;99.10
28244;DHT22;15510;52.512;13.300;2023-04-25T11:21:59;12.10;99.90
28244;DHT22;15510;52.512;13.300;2023-04-25T11:24:27;12.20;99.90
28244;DHT22;15510;52.512;13.300;2023-04-25T11:26:56;12.30;96.70
28244;DHT22;15510;52.512;13.300;2023-04-25T11:29:26;12.30;95.70
28244;DHT22;15510;52.512;13.300;2023-04-25T11:31:52;12.30;95.30
28244;DHT22;15510;52.512;13.300;2023-04-25T11:34:19;12.20;94.70
28244;DHT22;15510;52.512;13.300;2023-04-25T11:36:45;12.20;95.10
28244;DHT22;15510;52.512;13.300;2023-04-25T11:39:12;12.30;94.30
28244;DHT22;15510;52.512;13.300;2023-04-25T11:41:38;12.70;94.30
28244;DHT22;15510;52.512;13.300;2023-04-25T11:44:04;12.80;92.80
28244;DHT22;15510;52.512;13.300;2023-04-25T11:46:36;13.00;92.90
28244;DHT22;15510;52.512;13.300;2023-04-25T11:49:02;13.20;92.50
28244;DHT22;15510;52.512;13.300;2023-04-25T11:51:29;13.20;92.70
28244;DHT22;15510;52.512;13.300;2023-04-25T11:53:56;13.30;92.70
28244;DHT22;15510;52.512;13.300;2023-04-25T11:56:23;13.40;92.90
28244;DHT22;15510;52.512;13.300;2023-04-25T11:59:00;13.60;92.30
28244;DHT22;15510;52.512;13.300;2023-04-25T12:01:47;13.90;91.80
28244;DHT22;15510;52.512;13.300;2023-04-25T12:04:15;14.10;93.20
28244;DHT22;15510;52.512;13.300;2023-04-25T12:06:43;14.10;91.80
28244;DHT22;15510;52.512;13.300;2023-04-25T12:09:11;13.90;91.90
28244;DHT22;15510;52.512;13.300;2023-04-25T12:14:08;13.70;91.00
28244;DHT22;15510;52.512;13.300;2023-04-25T12:16:45;13.70;90.60
28244;DHT22;15510;52.512;13.300;2023-04-25T12:19:18;13.40;90.10
28244;DHT22;15510;52.512;13.300;2023-04-25T12:22:23;13.40;90.70
28244;DHT22;15510;52.512;13.300;2023-04-25T12:25:00;13.70;90.90
28244;DHT22;15510;52.512;13.300;2023-04-25T12:27:31;14.10;88.20
28244;DHT22;15510;52.512;13.300;2023-04-25T12:29:57;14.50;89.00
28244;DHT22;15510;52.512;13.300;2023-04-25T12:32:24;15.00;85.00
28244;DHT22;15510;52.512;13.300;2023-04-25T12:34:51;15.40;83.40
28244;DHT22;15510;52.512;13.300;2023-04-25T12:37:17;15.60;82.40
28244;DHT22;15510;52.512;13.300;2023-04-25T12:39:49;15.50;81.50
28244;DHT22;15510;52.512;13.300;2023-04-25T12:42:20;15.00;83.50
28244;DHT22;15510;52.512;13.300;2023-04-25T12:44:46;14.50;84.70
28244;DHT22;15510;52.512;13.300;2023-04-25T12:47:12;14.00;87.40
28244;DHT22;15510;52.512;13.300;2023-04-25T12:49:44;13.70;90.00
28244;DHT22;15510;52.512;13.300;2023-04-25T12:52:10;13.50;89.00
28244;DHT22;15510;52.512;13.300;2023-04-25T12:54:39;13.30;90.00
28244;DHT22;15510;52.512;13.300;2023-04-25T12:57:05;13.30;90.30
28244;DHT22;15510;52.512;13.300;2023-04-25T12:59:31;13.30;90.60
28244;DHT22;15510;52.512;13.300;2023-04-25T13:01:57;13.50;91.00
28244;DHT22;15510;52.512;13.300;2023-04-25T13:04:23;13.70;88.80
28244;DHT22;15510;52.512;13.300;2023-04-25T13:06:49;14.00;89.00
28244;DHT22;15510;52.512;13.300;2023-04-25T13:09:15;14.40;86.50
28244;DHT22;15510;52.512;13.300;2023-04-25T13:11:41;15.80;85.80
28244;DHT22;15510;52.512;13.300;2023-04-25T13:14:07;17.00;77.30
28244;DHT22;15510;52.512;13.300;2023-04-25T13:16:33;17.40;74.40
28244;DHT22;15510;52.512;13.300;2023-04-25T13:18:59;17.80;72.10
28244;DHT22;15510;52.512;13.300;2023-04-25T13:21:25;17.80;69.70
28244;DHT22;15510;52.512;13.300;2023-04-25T13:23:53;17.20;70.70
28244;DHT22;15510;52.512;13.300;2023-04-25T13:26:19;17.00;71.60
28244;DHT22;15510;52.512;13.300;2023-04-25T13:28:45;16.30;72.30
28244;DHT22;15510;52.512;13.300;2023-04-25T13:31:11;15.50;75.30
28244;DHT22;15510;52.512;13.300;2023-04-25T13:33:36;14.70;79.20
28244;DHT22;15510;52.512;13.300;2023-04-25T13:36:05;14.40;83.20
28244;DHT22;15510;52.512;13.300;2023-04-25T13:38:31;14.10;85.20
28244;DHT22;15510;52.512;13.300;2023-04-25T13:40:57;14.00;85.30
28244;DHT22;15510;52.512;13.300;2023-04-25T13:43:23;14.10;86.50
28244;DHT22;15510;52.512;13.300;2023-04-25T13:45:49;14.40;85.50
28244;DHT22;15510;52.512;13.300;2023-04-25T13:48:18;15.00;85.10
28244;DHT22;15510;52.512;13.300;2023-04-25T13:50:44;16.00;81.20
28244;DHT22;15510;52.512;13.300;2023-04-25T13:53:17;16.30;78.80
28244;DHT22;15510;52.512;13.300;2023-04-25T13:56:11;15.90;79.20
28244;DHT22;15510;52.512;13.300;2023-04-25T13:58:37;15.30;81.90
28244;DHT22;15510;52.512;13.300;2023-04-25T14:01:03;14.60;84.30
28244;DHT22;15510;52.512;13.300;2023-04-25T14:03:33;14.10;87.60
28244;DHT22;15510;52.512;13.300;2023-04-25T14:05:59;13.80;90.60
28244;DHT22;15510;52.512;13.300;2023-04-25T14:08:29;13.60;90.50
28244;DHT22;15510;52.512;13.300;2023-04-25T14:10:54;13.10;91.00
28244;DHT22;15510;52.512;13.300;2023-04-25T14:13:21;13.00;91.80
28244;DHT22;15510;52.512;13.300;2023-04-25T14:15:50;12.80;92.50
28244;DHT22;15510;52.512;13.300;2023-04-25T14:18:17;12.70;91.50
28244;DHT22;15510;52.512;13.300;2023-04-25T14:20:52;12.60;92.00
28244;DHT22;15510;52.512;13.300;2023-04-25T14:23:17;12.50;92.40
28244;DHT22;15510;52.512;13.300;2023-04-25T14:25:43;12.40;92.60
28244;DHT22;15510;52.512;13.300;2023-04-25T14:28:10;12.50;93.20
28244;DHT22;15510;52.512;13.300;2023-04-25T14:30:36;12.60;92.70
28244;DHT22;15510;52.512;13.300;2023-04-25T14:33:02;12.80;92.80
28244;DHT22;15510;52.512;13.300;2023-04-25T14:35:28;12.80;92.00
28244;DHT22;15510;52.512;13.300;2023-04-25T14:37:54;12.90;92.40
28244;DHT22;15510;52.512;13.300;2023-04-25T14:40:22;13.20;92.30
28244;DHT22;15510;52.512;13.300;2023-04-25T14:42:51;13.40;91.90
28244;DHT22;15510;52.512;13.300;2023-04-25T14:45:17;13.50;91.40
28244;DHT22;15510;52.512;13.300;2023-04-25T14:47:43;13.30;91.90
28244;DHT22;15510;52.512;13.300;2023-04-25T14:50:09;13.20;92.30
28244;DHT22;15510;52.512;13.300;2023-04-25T14:52:35;12.90;92.90
28244;DHT22;15510;52.512;13.300;2023-04-25T14:55:04;12.70;93.70
28244;DHT22;15510;52.512;13.300;2023-04-25T14:57:33;12.40;95.00
28244;DHT22;15510;52.512;13.300;2023-04-25T15:00:12;12.20;96.20
28244;DHT22;15510;52.512;13.300;2023-04-25T15:02:42;12.20;97.60
28244;DHT22;15510;52.512;13.300;2023-04-25T15:05:08;12.20;97.60
28244;DHT22;15510;52.512;13.300;2023-04-25T15:07:34;12.10;98.10
28244;DHT22;15510;52.512;13.300;2023-04-25T15:10:00;12.10;98.30
28244;DHT22;15510;52.512;13.300;2023-04-25T15:12:26;12.00;98.70
28244;DHT22;15510;52.512;13.300;2023-04-25T15:14:53;12.10;99.00
28244;DHT22;15510;52.512;13.300;2023-04-25T15:17:19;11.90;99.30
28244;DHT22;15510;52.512;13.300;2023-04-25T15:19:48;12.00;99.30
28244;DHT22;15510;52.512;13.300;2023-04-25T15:22:14;12.00;99.40
28244;DHT22;15510;52.512;13.300;2023-04-25T15:24:39;12.20;99.00
28244;DHT22;15510;52.512;13.300;2023-04-25T15:27:05;12.50;98.10
28244;DHT22;15510;52.512;13.300;2023-04-25T15:29:31;12.80;97.40
28244;DHT22;15510;52.512;13.300;2023-04-25T15:31:57;13.10;95.70
28244;DHT22;15510;52.512;13.300;2023-04-25T15:34:23;13.20;95.20
28244;DHT22;15510;52.512;13.300;2023-04-25T15:36:51;13.30;94.50
28244;DHT22;15510;52.512;13.300;2023-04-25T15:39:17;13.30;95.10
28244;DHT22;15510;52.512;13.300;2023-04-25T15:41:43;13.20;94.90
28244;DHT22;15510;52.512;13.300;2023-04-25T15:44:09;13.00;95.10
28244;DHT22;15510;52.512;13.300;2023-04-25T15:46:35;13.00;95.10
28244;DHT22;15510;52.512;13.300;2023-04-25T15:49:01;13.10;94.90
28244;DHT22;15510;52.512;13.300;2023-04-25T15:51:29;13.00;95.00